createdAt,value
2018-10-05T00:00:38.366Z,9.30
2018-10-05T00:03:06.053Z,11.13
2018-10-05T00:05:33.421Z,13.40
2018-10-05T00:08:00.749Z,8.40
2018-10-05T00:10:28.117Z,14.60
2018-10-05T00:12:55.558Z,7.47
2018-10-05T00:15:22.843Z,7.50
2018-10-05T00:17:50.518Z,8.57
2018-10-05T00:20:18.018Z,8.13
2018-10-05T00:22:45.386Z,13.30
2018-10-05T00:25:12.766Z,8.30
2018-10-05T00:27:40.064Z,13.10
2018-10-05T00:30:07.502Z,9.03
2018-10-05T00:32:35.009Z,9.27
2018-10-05T00:35:02.383Z,10.00
2018-10-05T00:37:29.798Z,6.40
2018-10-05T00:39:57.142Z,6.80
2018-10-05T00:42:24.623Z,10.83
2018-10-05T00:44:52.325Z,7.70
2018-10-05T00:47:19.868Z,9.47
2018-10-05T00:49:47.307Z,11.33
2018-10-05T00:52:14.657Z,11.70
2018-10-05T00:54:42.006Z,9.83
2018-10-05T00:57:09.494Z,7.23
2018-10-05T00:59:36.830Z,8.30
2018-10-05T01:02:04.416Z,12.80
2018-10-05T01:04:32.190Z,11.37
2018-10-05T01:07:00.298Z,8.90
2018-10-05T01:09:27.698Z,13.60
2018-10-05T01:11:55.071Z,8.70
2018-10-05T01:14:22.470Z,9.03
2018-10-05T01:16:49.870Z,6.97
2018-10-05T01:19:17.286Z,7.70
2018-10-05T01:21:44.725Z,8.23
2018-10-05T01:24:12.148Z,6.50
2018-10-05T01:26:39.774Z,7.17
2018-10-05T01:29:07.102Z,8.13
2018-10-05T01:31:35.188Z,7.13
2018-10-05T01:34:02.620Z,5.23
2018-10-05T01:36:29.985Z,6.20
2018-10-05T01:38:57.447Z,6.93
2018-10-05T01:41:24.794Z,6.17
2018-10-05T01:43:52.212Z,8.50
2018-10-05T01:46:19.586Z,5.20
2018-10-05T01:48:46.992Z,7.73
2018-10-05T01:51:19.187Z,6.17
2018-10-05T01:53:46.692Z,6.90
2018-10-05T01:56:14.112Z,7.17
2018-10-05T01:58:41.470Z,6.53
2018-10-05T02:01:08.873Z,9.23
2018-10-05T02:03:36.209Z,6.20
2018-10-05T02:06:03.797Z,7.70
2018-10-05T02:08:32.110Z,8.40
2018-10-05T02:10:59.725Z,7.87
2018-10-05T02:13:27.143Z,6.60
2018-10-05T02:15:54.545Z,10.30
2018-10-05T02:18:21.947Z,8.67
2018-10-05T02:20:49.344Z,8.00
2018-10-05T02:23:16.713Z,7.20
2018-10-05T02:25:44.126Z,6.70
2018-10-05T02:28:12.323Z,6.63
2018-10-05T02:30:39.787Z,7.80
2018-10-05T02:33:07.277Z,6.23
2018-10-05T02:35:34.550Z,6.20
2018-10-05T02:38:02.648Z,7.73
2018-10-05T02:40:30.066Z,7.70
2018-10-05T02:42:57.512Z,7.77
2018-10-05T02:45:25.046Z,6.30
2018-10-05T02:47:52.473Z,6.73
2018-10-05T02:50:19.873Z,8.00
2018-10-05T02:52:47.335Z,7.70
2018-10-05T02:55:14.890Z,7.73
2018-10-05T02:57:42.325Z,8.23
2018-10-05T03:00:21.277Z,6.10
2018-10-05T03:02:48.809Z,9.47
2018-10-05T03:05:16.227Z,6.20
2018-10-05T03:07:43.634Z,8.83
2018-10-05T03:10:11.015Z,9.13
2018-10-05T03:12:38.441Z,7.43
2018-10-05T03:15:05.807Z,15.00
2018-10-05T03:17:33.194Z,8.10
2018-10-05T03:20:00.797Z,7.00
2018-10-05T03:22:29.020Z,8.27
2018-10-05T03:24:56.419Z,5.10
2018-10-05T03:27:23.834Z,10.73
2018-10-05T03:29:51.198Z,10.17
2018-10-05T03:32:18.577Z,10.73
2018-10-05T03:34:45.987Z,7.23
2018-10-05T03:37:13.422Z,6.57
2018-10-05T03:39:40.802Z,6.93
2018-10-05T03:42:08.288Z,7.17
2018-10-05T03:44:35.608Z,9.70
2018-10-05T03:47:03.754Z,4.80
2018-10-05T03:49:31.103Z,8.87
2018-10-05T03:51:58.444Z,8.60
2018-10-05T03:54:26.122Z,8.23
2018-10-05T03:56:53.531Z,7.13
2018-10-05T03:59:20.897Z,4.90
2018-10-05T04:01:48.307Z,7.13
2018-10-05T04:04:15.802Z,5.90
2018-10-05T04:06:43.161Z,7.37
2018-10-05T04:09:10.687Z,7.03
2018-10-05T04:11:38.174Z,7.50
2018-10-05T04:14:05.949Z,8.40
2018-10-05T04:16:33.439Z,7.20
2018-10-05T04:19:01.037Z,8.30
2018-10-05T04:21:28.441Z,11.80
2018-10-05T04:23:55.918Z,7.13
2018-10-05T04:26:23.270Z,8.50
2018-10-05T04:28:50.654Z,6.03
2018-10-05T04:31:18.174Z,12.10
2018-10-05T04:33:45.609Z,9.43
2018-10-05T04:36:12.964Z,8.90
2018-10-05T04:38:40.369Z,12.17
2018-10-05T04:41:07.805Z,6.20
2018-10-05T04:43:35.698Z,8.50
2018-10-05T04:46:03.447Z,13.73
2018-10-05T04:48:31.535Z,11.60
2018-10-05T04:50:58.985Z,5.93
2018-10-05T04:53:26.523Z,7.70
2018-10-05T04:55:54.037Z,9.77
2018-10-05T04:58:21.582Z,8.77
2018-10-05T05:00:49.717Z,15.07
2018-10-05T05:03:17.120Z,60.37
2018-10-05T05:05:44.543Z,26.93
2018-10-05T05:08:11.952Z,14.57
2018-10-05T05:10:39.429Z,15.57
2018-10-05T05:13:07.158Z,9.23
2018-10-05T05:15:34.539Z,10.53
2018-10-05T05:18:02.035Z,12.13
2018-10-05T05:20:29.535Z,10.23
2018-10-05T05:22:56.946Z,6.67
2018-10-05T05:25:24.445Z,8.40
2018-10-05T05:27:51.885Z,9.10
2018-10-05T05:30:19.324Z,10.90
2018-10-05T05:32:46.723Z,54.90
2018-10-05T05:35:14.131Z,30.30
2018-10-05T05:37:41.676Z,18.60
2018-10-05T05:40:09.174Z,10.20
2018-10-05T05:42:36.816Z,7.60
2018-10-05T05:45:04.320Z,10.90
2018-10-05T05:47:31.743Z,7.70
2018-10-05T05:49:59.128Z,10.13
2018-10-05T05:52:26.498Z,10.10
2018-10-05T05:54:53.859Z,7.90
2018-10-05T05:57:21.228Z,9.67
2018-10-05T05:59:48.633Z,7.80
2018-10-05T06:02:16.009Z,8.37
2018-10-05T06:04:44.270Z,6.73
2018-10-05T06:07:13.955Z,8.40
2018-10-05T06:09:41.373Z,7.90
2018-10-05T06:12:08.742Z,10.10
2018-10-05T06:14:36.087Z,7.47
2018-10-05T06:17:03.490Z,6.20
2018-10-05T06:19:30.860Z,5.10
2018-10-05T06:21:58.420Z,6.20
2018-10-05T06:24:25.719Z,11.10
2018-10-05T06:26:53.134Z,40.13
2018-10-05T06:29:20.578Z,25.63
2018-10-05T06:31:48.022Z,17.80
2018-10-05T06:34:15.406Z,10.30
2018-10-05T06:36:42.790Z,8.17
2018-10-05T06:39:10.308Z,7.17
2018-10-05T06:41:37.927Z,6.83
2018-10-05T06:44:05.491Z,13.60
2018-10-05T06:46:32.893Z,10.87
2018-10-05T06:49:00.300Z,8.33
2018-10-05T06:51:27.763Z,8.00
2018-10-05T06:53:55.114Z,6.97
2018-10-05T06:56:22.622Z,29.70
2018-10-05T06:58:50.260Z,15.37
2018-10-05T07:01:17.689Z,7.53
2018-10-05T07:03:45.146Z,8.10
2018-10-05T07:06:12.614Z,8.00
2018-10-05T07:08:39.986Z,6.80
2018-10-05T07:11:07.409Z,8.47
2018-10-05T07:13:34.780Z,6.27
2018-10-05T07:16:02.221Z,5.73
2018-10-05T07:18:29.633Z,8.53
2018-10-05T07:20:57.036Z,7.33
2018-10-05T07:23:24.424Z,9.60
2018-10-05T07:25:51.816Z,31.30
2018-10-05T07:28:19.267Z,44.30
2018-10-05T07:30:46.643Z,27.93
2018-10-05T07:33:14.070Z,37.97
2018-10-05T07:35:41.401Z,38.50
2018-10-05T07:38:08.795Z,27.63
2018-10-05T07:40:36.206Z,19.63
2018-10-05T07:43:03.584Z,13.47
2018-10-05T07:45:30.934Z,11.57
2018-10-05T07:47:58.317Z,10.00
2018-10-05T07:50:25.708Z,7.47
2018-10-05T07:52:54.002Z,6.50
2018-10-05T07:55:21.361Z,8.13
2018-10-05T07:57:48.749Z,5.40
2018-10-05T08:00:16.155Z,6.80
2018-10-05T08:02:43.602Z,9.43
2018-10-05T08:05:11.029Z,4.93
2018-10-05T08:07:38.411Z,7.27
2018-10-05T08:10:05.892Z,7.37
2018-10-05T08:12:33.324Z,5.13
2018-10-05T08:15:00.832Z,6.50
2018-10-05T08:17:28.282Z,7.53
2018-10-05T08:19:56.444Z,10.87
2018-10-05T08:22:23.898Z,69.07
2018-10-05T08:24:51.314Z,63.43
2018-10-05T08:27:18.701Z,46.20
2018-10-05T08:29:46.062Z,37.70
2018-10-05T08:32:13.458Z,20.30
2018-10-05T08:34:40.961Z,14.80
2018-10-05T08:37:08.499Z,12.57
2018-10-05T08:39:36.898Z,9.70
2018-10-05T08:42:04.525Z,10.67
2018-10-05T08:44:31.896Z,6.83
2018-10-05T08:46:59.360Z,7.80
2018-10-05T08:49:26.777Z,8.57
2018-10-05T08:51:54.163Z,7.60
2018-10-05T08:54:28.850Z,4.53
2018-10-05T08:56:57.585Z,5.80
2018-10-05T08:59:25.096Z,4.20
2018-10-05T09:01:52.532Z,4.30
2018-10-05T09:04:19.927Z,14.77
2018-10-05T09:06:47.298Z,27.50
2018-10-05T09:09:14.693Z,28.50
2018-10-05T09:11:42.092Z,26.33
2018-10-05T09:14:09.462Z,33.37
2018-10-05T09:16:36.789Z,21.63
2018-10-05T09:19:04.229Z,14.27
2018-10-05T09:21:31.667Z,15.47
2018-10-05T09:23:59.631Z,41.30
2018-10-05T09:26:26.996Z,40.47
2018-10-05T09:28:54.457Z,24.43
2018-10-05T09:31:21.996Z,19.40
2018-10-05T09:33:49.394Z,16.10
2018-10-05T09:36:16.866Z,13.20
2018-10-05T09:38:44.498Z,11.23
2018-10-05T09:41:11.914Z,11.00
2018-10-05T09:43:39.304Z,6.47
2018-10-05T09:46:06.703Z,10.57
2018-10-05T09:48:34.057Z,4.90
2018-10-05T09:51:01.559Z,7.10
2018-10-05T09:53:35.049Z,4.23
2018-10-05T09:56:03.004Z,5.70
2018-10-05T09:58:30.882Z,5.10
2018-10-05T10:01:03.979Z,3.50
2018-10-05T10:03:33.690Z,6.37
2018-10-05T10:06:01.541Z,3.13
2018-10-05T10:08:29.642Z,5.53
2018-10-05T10:10:57.146Z,9.10
2018-10-05T10:13:24.574Z,2.93
2018-10-05T10:15:51.911Z,3.27
2018-10-05T10:18:19.334Z,10.07
2018-10-05T10:20:46.816Z,2.03
2018-10-05T10:23:14.235Z,4.20
2018-10-05T10:25:41.627Z,1.90
2018-10-05T10:28:09.455Z,3.90
2018-10-05T10:30:36.728Z,1.93
2018-10-05T10:33:04.342Z,4.40
2018-10-05T10:35:31.806Z,3.93
2018-10-05T10:37:59.159Z,2.07
2018-10-05T10:40:26.639Z,2.80
2018-10-05T10:42:54.110Z,4.10
2018-10-05T10:45:21.668Z,3.33
2018-10-05T10:47:49.090Z,2.83
2018-10-05T10:50:22.735Z,3.50
2018-10-05T10:52:50.078Z,5.13
2018-10-05T10:55:17.663Z,9.00
2018-10-05T10:57:45.419Z,2.63
2018-10-05T11:00:13.166Z,1.90
2018-10-05T11:02:40.632Z,1.97
2018-10-05T11:05:08.344Z,1.90
2018-10-05T11:07:35.779Z,5.63
2018-10-05T11:10:03.431Z,4.20
2018-10-05T11:12:30.819Z,6.87
2018-10-05T11:14:58.308Z,3.00
2018-10-05T11:17:25.718Z,5.40
2018-10-05T11:19:53.349Z,3.43
2018-10-05T11:22:20.983Z,5.43
2018-10-05T11:24:48.431Z,3.20
2018-10-05T11:27:15.854Z,2.73
2018-10-05T11:29:43.501Z,4.83
2018-10-05T11:32:11.490Z,3.43
2018-10-05T11:34:39.932Z,3.40
2018-10-05T11:37:07.444Z,3.13
2018-10-05T11:39:34.874Z,3.03
2018-10-05T11:42:02.422Z,2.60
2018-10-05T11:44:30.611Z,6.67
2018-10-05T11:46:58.057Z,4.73
2018-10-05T11:49:25.842Z,2.33
2018-10-05T11:51:53.346Z,5.97
2018-10-05T11:54:20.726Z,3.70
2018-10-05T11:56:48.223Z,3.37
2018-10-05T11:59:15.606Z,4.33
2018-10-05T12:01:43.036Z,3.17
2018-10-05T12:04:10.847Z,4.23
2018-10-05T12:06:38.209Z,6.77
2018-10-05T12:09:06.961Z,5.00
2018-10-05T12:11:34.450Z,3.03
2018-10-05T12:14:02.174Z,3.70
2018-10-05T12:16:29.567Z,3.40
2018-10-05T12:18:57.175Z,12.23
2018-10-05T12:21:24.576Z,4.40
2018-10-05T12:23:51.894Z,3.63
2018-10-05T12:26:19.328Z,4.03
2018-10-05T12:28:46.682Z,3.70
2018-10-05T12:31:14.636Z,5.23
2018-10-05T12:33:42.415Z,4.50
2018-10-05T12:36:09.918Z,5.90
2018-10-05T12:38:37.354Z,3.13
2018-10-05T12:41:05.054Z,4.53
2018-10-05T12:43:33.485Z,2.53
2018-10-05T12:46:01.338Z,4.33
2018-10-05T12:48:28.688Z,5.07
2018-10-05T12:50:56.202Z,3.60
2018-10-05T12:53:23.849Z,3.33
2018-10-05T12:55:51.235Z,3.30
2018-10-05T12:58:18.990Z,3.20
2018-10-05T13:00:46.321Z,2.73
2018-10-05T13:03:13.671Z,4.53
2018-10-05T13:05:41.059Z,4.77
2018-10-05T13:08:08.529Z,3.70
2018-10-05T13:10:35.847Z,4.20
2018-10-05T13:13:03.328Z,6.77
2018-10-05T13:15:30.629Z,6.73
2018-10-05T13:17:58.382Z,4.27
2018-10-05T13:20:25.754Z,5.07
2018-10-05T13:22:53.096Z,4.77
2018-10-05T13:25:20.690Z,4.70
2018-10-05T13:27:48.096Z,8.13
2018-10-05T13:30:15.611Z,4.27
2018-10-05T13:32:43.106Z,5.00
2018-10-05T13:35:10.558Z,5.37
2018-10-05T13:37:39.032Z,3.70
2018-10-05T13:40:06.547Z,4.40
2018-10-05T13:42:33.912Z,6.17
2018-10-05T13:45:01.445Z,4.93
2018-10-05T13:47:29.030Z,3.33
2018-10-05T13:49:56.623Z,5.13
2018-10-05T13:52:24.091Z,4.87
2018-10-05T13:54:51.570Z,5.40
2018-10-05T13:57:19.107Z,3.13
2018-10-05T13:59:52.424Z,3.67
2018-10-05T14:02:20.058Z,5.50
2018-10-05T14:04:47.351Z,2.90
2018-10-05T14:07:14.832Z,3.30
2018-10-05T14:09:42.211Z,6.33
2018-10-05T14:12:09.613Z,4.80
2018-10-05T14:14:36.969Z,5.13
2018-10-05T14:17:04.421Z,4.03
2018-10-05T14:19:31.788Z,4.63
2018-10-05T14:21:59.155Z,4.87
2018-10-05T14:24:26.516Z,6.33
2018-10-05T14:26:53.926Z,3.20
2018-10-05T14:29:21.388Z,3.80
2018-10-05T14:31:48.751Z,5.80
2018-10-05T14:34:16.131Z,4.67
2018-10-05T14:36:43.555Z,3.87
2018-10-05T14:39:10.967Z,5.60
2018-10-05T14:41:38.410Z,5.40
2018-10-05T14:44:05.925Z,3.37
2018-10-05T14:46:33.504Z,4.33
2018-10-05T14:49:00.983Z,3.67
2018-10-05T14:51:28.341Z,5.63
2018-10-05T14:53:55.766Z,5.27
2018-10-05T14:56:23.194Z,5.57
2018-10-05T14:58:51.408Z,5.77
2018-10-05T15:01:18.835Z,3.93
2018-10-05T15:03:46.423Z,4.83
2018-10-05T15:06:13.961Z,2.80
2018-10-05T15:08:41.239Z,5.23
2018-10-05T15:11:08.573Z,3.30
2018-10-05T15:13:36.050Z,4.60
2018-10-05T15:16:03.478Z,4.00
2018-10-05T15:18:31.146Z,3.50
2018-10-05T15:20:58.547Z,3.63
2018-10-05T15:23:26.043Z,3.73
2018-10-05T15:25:53.458Z,4.73
2018-10-05T15:28:21.067Z,4.97
2018-10-05T15:30:48.646Z,4.77
2018-10-05T15:33:17.176Z,6.17
2018-10-05T15:35:44.706Z,5.60
2018-10-05T15:38:13.073Z,5.30
2018-10-05T15:40:40.520Z,3.80
2018-10-05T15:43:07.949Z,4.70
2018-10-05T15:45:36.996Z,3.57
2018-10-05T15:48:08.250Z,2.43
2018-10-05T15:50:37.448Z,3.80
2018-10-05T15:53:06.312Z,3.50
2018-10-05T15:55:33.737Z,4.20
2018-10-05T15:58:02.462Z,4.10
2018-10-05T16:00:30.953Z,2.47
2018-10-05T16:02:58.887Z,4.57
2018-10-05T16:05:29.356Z,2.97
2018-10-05T16:07:56.806Z,4.50
2018-10-05T16:10:25.499Z,2.20
2018-10-05T16:12:54.277Z,2.60
2018-10-05T16:15:22.692Z,6.37
2018-10-05T16:17:51.152Z,6.33
2018-10-05T16:20:20.907Z,2.30
2018-10-05T16:22:48.757Z,4.07
2018-10-05T16:25:16.222Z,2.10
2018-10-05T16:27:44.859Z,4.40
2018-10-05T16:30:13.702Z,2.23
2018-10-05T16:32:41.054Z,2.30
2018-10-05T16:35:08.533Z,2.60
2018-10-05T16:37:36.003Z,4.00
2018-10-05T16:40:03.527Z,2.43
2018-10-05T16:42:31.330Z,2.37
2018-10-05T16:45:00.478Z,8.27
2018-10-05T16:47:28.064Z,4.40
2018-10-05T16:49:56.865Z,3.67
2018-10-05T16:52:24.529Z,5.97
2018-10-05T16:54:54.070Z,2.63
2018-10-05T16:57:22.645Z,4.80
2018-10-05T16:59:49.958Z,4.33
2018-10-05T17:02:17.481Z,3.33
2018-10-05T17:04:45.926Z,2.90
2018-10-05T17:07:13.842Z,4.17
2018-10-05T17:09:43.087Z,4.80
2018-10-05T17:12:11.052Z,4.07
2018-10-05T17:14:42.874Z,7.43
2018-10-05T17:17:10.232Z,8.00
2018-10-05T17:19:38.418Z,7.50
2018-10-05T17:22:06.937Z,10.63
2018-10-05T17:24:34.393Z,14.20
2018-10-05T17:27:02.386Z,11.03
2018-10-05T17:29:29.938Z,11.93
2018-10-05T17:31:57.324Z,11.27
2018-10-05T17:34:24.718Z,8.97
2018-10-05T17:36:52.140Z,9.87
2018-10-05T17:39:19.500Z,10.70
2018-10-05T17:41:46.859Z,8.40
2018-10-05T17:44:14.167Z,10.33
2018-10-05T17:46:41.495Z,5.97
2018-10-05T17:49:08.853Z,10.93
2018-10-05T17:51:36.341Z,7.90
2018-10-05T17:54:03.750Z,6.70
2018-10-05T17:56:31.230Z,25.30
2018-10-05T17:58:58.610Z,9.10
2018-10-05T18:01:26.058Z,7.43
2018-10-05T18:03:53.474Z,4.07
2018-10-05T18:06:20.913Z,3.57
2018-10-05T18:08:48.442Z,4.63
2018-10-05T18:11:15.901Z,11.20
2018-10-05T18:13:43.366Z,6.63
2018-10-05T18:16:10.845Z,8.43
2018-10-05T18:18:38.382Z,9.80
2018-10-05T18:21:06.019Z,5.17
2018-10-05T18:23:33.418Z,4.40
2018-10-05T18:26:00.961Z,4.90
2018-10-05T18:28:28.370Z,9.03
2018-10-05T18:30:55.730Z,4.33
2018-10-05T18:33:23.412Z,12.60
2018-10-05T18:35:50.761Z,5.50
2018-10-05T18:38:18.174Z,6.87
2018-10-05T18:40:45.558Z,5.43
2018-10-05T18:43:13.016Z,6.50
2018-10-05T18:45:40.545Z,5.17
2018-10-05T18:48:07.935Z,6.07
2018-10-05T18:50:36.008Z,6.93
2018-10-05T18:53:03.600Z,8.10
2018-10-05T18:55:31.088Z,6.10
2018-10-05T18:57:58.697Z,6.57
2018-10-05T19:00:26.080Z,5.40
2018-10-05T19:02:53.867Z,7.10
2018-10-05T19:05:21.311Z,4.27
2018-10-05T19:07:48.696Z,6.23
2018-10-05T19:10:16.103Z,3.83
2018-10-05T19:12:43.397Z,3.77
2018-10-05T19:15:10.877Z,5.83
2018-10-05T19:17:38.223Z,7.13
2018-10-05T19:20:06.634Z,20.80
2018-10-05T19:22:34.403Z,17.40
2018-10-05T19:25:01.899Z,13.30
2018-10-05T19:27:29.351Z,8.43
2018-10-05T19:29:56.886Z,6.03
2018-10-05T19:32:24.386Z,6.37
2018-10-05T19:34:52.018Z,6.13
2018-10-05T19:37:19.554Z,3.90
2018-10-05T19:39:46.955Z,5.63
2018-10-05T19:42:14.334Z,3.70
2018-10-05T19:44:42.592Z,3.73
2018-10-05T19:47:10.106Z,4.53
2018-10-05T19:49:37.504Z,4.53
2018-10-05T19:52:04.981Z,6.97
2018-10-05T19:54:32.478Z,5.67
2018-10-05T19:57:00.033Z,6.17
2018-10-05T19:59:27.379Z,3.37
2018-10-05T20:01:54.914Z,4.43
2018-10-05T20:04:22.336Z,4.60
2018-10-05T20:06:49.699Z,6.00
2018-10-05T20:09:17.106Z,5.77
2018-10-05T20:11:44.644Z,5.07
2018-10-05T20:14:12.046Z,5.90
2018-10-05T20:16:39.672Z,5.57
2018-10-05T20:19:07.131Z,4.33
2018-10-05T20:21:34.681Z,6.97
2018-10-05T20:24:02.671Z,7.63
2018-10-05T20:26:30.199Z,5.63
2018-10-05T20:28:57.615Z,4.80
2018-10-05T20:31:25.616Z,6.27
2018-10-05T20:33:54.058Z,4.70
2018-10-05T20:36:21.618Z,4.87
2018-10-05T20:38:49.059Z,7.03
2018-10-05T20:41:16.483Z,6.50
2018-10-05T20:43:43.877Z,4.70
2018-10-05T20:46:11.291Z,5.77
2018-10-05T20:48:38.750Z,8.23
2018-10-05T20:51:06.274Z,5.43
2018-10-05T20:53:33.802Z,17.23
2018-10-05T20:56:01.304Z,6.10
2018-10-05T20:58:28.703Z,4.73
2018-10-05T21:00:56.231Z,5.13
2018-10-05T21:03:23.550Z,6.70
2018-10-05T21:05:50.977Z,5.33
2018-10-05T21:08:18.640Z,7.77
2018-10-05T21:10:46.249Z,5.60
2018-10-05T21:13:13.681Z,4.73
2018-10-05T21:15:41.206Z,6.13
2018-10-05T21:18:08.706Z,6.17
2018-10-05T21:20:36.218Z,6.60
2018-10-05T21:23:03.662Z,5.17
2018-10-05T21:25:31.009Z,6.97
2018-10-05T21:27:58.514Z,5.40
2018-10-05T21:30:26.195Z,6.37
2018-10-05T21:32:53.718Z,5.03
2018-10-05T21:35:21.123Z,8.87
2018-10-05T21:37:48.499Z,6.10
2018-10-05T21:40:15.857Z,5.20
2018-10-05T21:42:43.298Z,6.20
2018-10-05T21:45:10.847Z,6.20
2018-10-05T21:47:38.259Z,6.07
2018-10-05T21:50:06.067Z,8.00
2018-10-05T21:52:33.520Z,6.50
2018-10-05T21:55:00.876Z,6.63
2018-10-05T21:57:28.234Z,5.83
2018-10-05T21:59:55.694Z,8.97
2018-10-05T22:02:23.491Z,9.17
2018-10-05T22:04:50.864Z,6.70
2018-10-05T22:07:18.157Z,5.80
2018-10-05T22:09:45.543Z,6.70
2018-10-05T22:12:12.878Z,8.27
2018-10-05T22:14:40.300Z,8.43
2018-10-05T22:17:07.841Z,5.57
2018-10-05T22:19:35.264Z,7.37
2018-10-05T22:22:02.563Z,7.10
2018-10-05T22:24:29.927Z,6.77
2018-10-05T22:26:57.433Z,8.77
2018-10-05T22:29:24.865Z,12.90
2018-10-05T22:31:52.225Z,6.03
2018-10-05T22:34:19.566Z,4.80
2018-10-05T22:36:46.898Z,8.13
2018-10-05T22:39:14.273Z,7.50
2018-10-05T22:41:41.657Z,7.30
2018-10-05T22:44:09.026Z,8.23
2018-10-05T22:46:36.403Z,7.33
2018-10-05T22:49:03.910Z,7.47
2018-10-05T22:51:31.250Z,6.73
2018-10-05T22:53:58.599Z,6.90
2018-10-05T22:56:25.967Z,8.00
2018-10-05T22:58:53.336Z,6.70
2018-10-05T23:01:20.711Z,7.27
2018-10-05T23:03:48.398Z,7.80
2018-10-05T23:06:15.737Z,6.10
2018-10-05T23:08:43.750Z,7.60
2018-10-05T23:11:11.069Z,7.07
2018-10-05T23:13:38.477Z,7.13
2018-10-05T23:16:06.183Z,5.20
2018-10-05T23:18:33.633Z,7.27
2018-10-05T23:21:07.016Z,7.07
2018-10-05T23:23:34.405Z,6.10
2018-10-05T23:26:01.839Z,6.73
2018-10-05T23:28:29.217Z,8.53
2018-10-05T23:30:56.513Z,8.47
2018-10-05T23:33:24.080Z,7.90
2018-10-05T23:35:51.414Z,9.10
2018-10-05T23:38:18.746Z,9.83
2018-10-05T23:40:46.091Z,8.60
2018-10-05T23:43:13.485Z,9.10
2018-10-05T23:45:40.867Z,9.30
2018-10-05T23:48:08.242Z,8.03
2018-10-05T23:50:35.657Z,7.47
2018-10-05T23:53:03.036Z,6.20
2018-10-05T23:55:30.373Z,6.83
2018-10-05T23:57:57.703Z,7.53
